Afton, Iowa
Current Conditions -  °F | °C
As of 12:15 AM on Tuesday 21 Oct 2014 (Local Time) from KCSQ Reporting Station
Clear Clear  
Wind Chill: 46°   Ceiling: Unl
Heat Index: 48°   Visibility: 10mi
Dew Point: 41°   Wind: 5mph
Humidity: 76%   Direction: 290°WNW
Pressure: 30.07"   Gusts: NA
Location:  41.03°N, 94.2°W
Report Text: KCSQ 210515Z AUTO 29004KT 10SM CLR 09/05 A3007 RMK AO2
Loading
Personal Weather Stations






























Interactive Weather Map New forecast layout! Learn more

10-Day Weather Forecast

Advertisements
Track Severe Weather on mobile